Time;durP1;ratioP1;P1;durP2;ratioP2;P2;SDS_P1;SDS_P2;PMS_P1;PMS_P2;Temp;Humidity;BMP_temperature;BMP_pressure;BME280_temperature;BME280_humidity;BME280_pressure;Samples;Min_cycle;Max_cycle;Signal;HPM_P1;HPM_P2
2022/12/01 00:00:54;;;;;;;76.70;46.63;;;;;;;-0.63;100.00;100831.41;5092090;28;20164;-77
2022/12/01 00:03:19;;;;;;;62.67;40.92;;;;;;;-0.58;100.00;100837.50;5091591;28;20052;-77
2022/12/01 00:05:44;;;;;;;76.47;45.58;;;;;;;-0.60;100.00;100832.31;5091969;28;20111;-77
2022/12/01 00:08:10;;;;;;;77.38;45.22;;;;;;;-0.72;100.00;100828.69;5092167;28;20032;-77
2022/12/01 00:10:35;;;;;;;66.65;41.38;;;;;;;-0.73;100.00;100827.81;5091678;28;20016;-77
2022/12/01 00:13:03;;;;;;;62.53;39.05;;;;;;;-0.71;100.00;100827.88;5091957;28;20028;-77
2022/12/01 00:15:34;;;;;;;65.40;37.67;;;;;;;-0.68;100.00;100839.00;5091918;28;20025;-77
2022/12/01 00:18:00;;;;;;;66.38;40.10;;;;;;;-0.83;100.00;100824.25;5092103;28;20056;-77
2022/12/01 00:20:26;;;;;;;59.70;39.03;;;;;;;-0.91;100.00;100818.13;5091826;28;20031;-77
2022/12/01 00:22:52;;;;;;;58.45;36.72;;;;;;;-0.76;100.00;100845.66;5091865;28;20028;-77
2022/12/01 00:25:19;;;;;;;71.50;42.35;;;;;;;-0.81;100.00;100837.91;5091708;28;20489;-77
2022/12/01 00:27:52;;;;;;;69.13;40.03;;;;;;;-0.83;100.00;100833.63;5091613;28;20456;-77
2022/12/01 00:30:19;;;;;;;73.15;43.50;;;;;;;-0.92;100.00;100813.84;5091645;28;20100;-77
2022/12/01 00:32:45;;;;;;;62.13;40.22;;;;;;;-0.84;100.00;100827.66;5092059;28;20362;-77
2022/12/01 00:35:11;;;;;;;71.63;43.30;;;;;;;-0.81;100.00;100827.69;5091771;28;20024;-77
2022/12/01 00:37:36;;;;;;;69.35;44.30;;;;;;;-0.74;100.00;100828.66;5091848;28;20375;-77
2022/12/01 00:40:03;;;;;;;69.75;42.00;;;;;;;-0.78;100.00;100830.31;5091715;28;20016;-77
2022/12/01 00:42:29;;;;;;;71.07;41.10;;;;;;;-0.76;100.00;100835.44;5091746;28;20030;-77
2022/12/01 00:44:54;;;;;;;68.55;43.40;;;;;;;-0.74;100.00;100831.22;5091835;28;20028;-77
2022/12/01 00:47:20;;;;;;;62.20;40.63;;;;;;;-0.73;100.00;100837.22;5091480;28;20413;-77
2022/12/01 00:49:45;;;;;;;76.35;42.30;;;;;;;-0.73;100.00;100822.72;5091716;28;20034;-77
2022/12/01 00:52:12;;;;;;;60.38;38.78;;;;;;;-0.76;100.00;100818.41;5091661;28;20028;-77
2022/12/01 00:54:38;;;;;;;61.75;39.28;;;;;;;-0.77;100.00;100821.78;5091250;28;20030;-77
2022/12/01 00:57:04;;;;;;;63.90;38.42;;;;;;;-0.79;100.00;100815.81;5091753;28;20055;-77
2022/12/01 00:59:29;;;;;;;63.25;40.25;;;;;;;-0.72;100.00;100824.44;5073162;28;20479;-77
2022/12/01 01:01:55;;;;;;;57.13;36.53;;;;;;;-0.74;100.00;100821.00;5091485;28;20040;-77
2022/12/01 01:04:20;;;;;;;60.72;38.67;;;;;;;-0.80;100.00;100813.19;5091278;28;20035;-77
2022/12/01 01:06:46;;;;;;;58.78;36.45;;;;;;;-0.74;100.00;100823.56;5091378;28;20417;-77
2022/12/01 01:09:13;;;;;;;50.70;33.60;;;;;;;-0.77;100.00;100816.69;5093770;28;20070;-77
2022/12/01 01:11:39;;;;;;;57.47;36.38;;;;;;;-0.80;100.00;100805.53;5095103;28;20098;-77
2022/12/01 01:14:05;;;;;;;60.97;37.03;;;;;;;-0.76;100.00;100807.31;5095311;28;20107;-77
2022/12/01 01:16:31;;;;;;;59.22;37.35;;;;;;;-0.71;100.00;100805.72;5094968;28;20082;-77
2022/12/01 01:18:57;;;;;;;55.17;34.28;;;;;;;-0.70;100.00;100821.91;5095077;28;20012;-77
2022/12/01 01:21:23;;;;;;;52.53;31.60;;;;;;;-0.69;100.00;100814.25;5094763;28;20016;-77
2022/12/01 01:23:50;;;;;;;62.42;37.00;;;;;;;-0.72;100.00;100805.66;5076891;28;20020;-77
2022/12/01 01:26:28;;;;;;;55.75;36.05;;;;;;;-0.66;100.00;100811.75;5074673;28;20341;-77
2022/12/01 01:28:57;;;;;;;53.95;34.63;;;;;;;-0.69;100.00;100809.13;5074689;28;20020;-77
2022/12/01 01:31:24;;;;;;;54.55;33.60;;;;;;;-0.69;100.00;100814.25;5074299;28;20103;-77
2022/12/01 01:33:50;;;;;;;56.92;33.95;;;;;;;-0.75;100.00;100801.38;5074434;28;20464;-77
2022/12/01 01:36:17;;;;;;;61.38;37.70;;;;;;;-0.75;100.00;100801.38;5074375;28;20021;-77
2022/12/01 01:38:42;;;;;;;59.33;37.63;;;;;;;-0.73;100.00;100804.81;5074095;28;20456;-77
2022/12/01 01:41:09;;;;;;;58.05;35.38;;;;;;;-0.71;100.00;100808.28;5074340;28;20032;-77
2022/12/01 01:43:58;;;;;;;60.67;35.92;;;;;;;-0.71;100.00;100802.28;5074099;28;20020;-77
2022/12/01 01:46:29;;;;;;;62.45;37.03;;;;;;;-0.83;100.00;100796.13;5074073;28;20030;-77
2022/12/01 01:49:05;;;;;;;63.78;37.20;;;;;;;-0.84;100.00;100793.53;5074248;28;20024;-77
2022/12/01 01:51:41;;;;;;;59.28;34.92;;;;;;;-0.76;100.00;100807.31;5056222;28;20555;-77
2022/12/01 01:54:21;;;;;;;61.20;35.17;;;;;;;-0.80;100.00;100796.19;5074268;28;20074;-77
2022/12/01 01:56:48;;;;;;;62.95;37.80;;;;;;;-0.80;100.00;100791.06;5074132;28;20377;-77
2022/12/01 01:59:17;;;;;;;61.92;37.42;;;;;;;-0.72;100.00;100805.66;5073926;28;20024;-77
2022/12/01 02:01:47;;;;;;;60.85;37.47;;;;;;;-0.85;100.00;100777.31;5089520;28;20093;-77
2022/12/01 02:04:14;;;;;;;57.60;35.53;;;;;;;-0.78;100.00;100797.06;5094281;28;20085;-77
2022/12/01 02:06:40;;;;;;;55.28;34.85;;;;;;;-0.70;100.00;100793.78;5093948;28;20423;-77
2022/12/01 02:09:05;;;;;;;56.47;32.35;;;;;;;-0.75;100.00;100786.03;5094175;28;20024;-77
2022/12/01 02:12:29;;;;;;;56.05;36.10;;;;;;;-0.66;100.00;100798.13;5093784;28;20111;-77
2022/12/01 02:15:13;;;;;;;58.00;33.80;;;;;;;-0.66;100.00;100796.41;4992125;28;20101;-77
2022/12/01 02:17:44;;;;;;;57.38;33.33;;;;;;;-0.64;100.00;100793.88;4991849;28;20037;-77
2022/12/01 02:20:12;;;;;;;61.60;36.47;;;;;;;-0.59;100.00;100792.25;4991262;28;20019;-77
2022/12/01 02:22:46;;;;;;;59.53;36.08;;;;;;;-0.58;100.00;100788.88;4991920;28;20045;-77
2022/12/01 02:25:33;;;;;;;55.22;33.17;;;;;;;-0.57;100.00;100798.25;4991778;28;20023;-77
2022/12/01 02:28:21;;;;;;;61.22;38.15;;;;;;;-0.58;100.00;100794.84;4991672;28;20118;-77
2022/12/01 02:31:11;;;;;;;58.80;34.42;;;;;;;-0.53;100.00;100800.03;4991447;28;20478;-77
2022/12/01 02:33:45;;;;;;;54.05;32.88;;;;;;;-0.62;100.00;100779.41;4991513;28;20601;-77
2022/12/01 02:36:21;;;;;;;54.28;32.60;;;;;;;-0.55;100.00;100781.22;4991697;28;20044;-77
2022/12/01 02:39:00;;;;;;;58.97;37.58;;;;;;;-0.48;100.00;100792.44;4991409;28;20069;-77
2022/12/01 02:41:31;;;;;;;57.92;34.63;;;;;;;-0.53;100.00;100789.81;4991333;28;20045;-77
2022/12/01 02:44:17;;;;;;;62.38;36.90;;;;;;;-0.48;100.00;100782.19;4991377;28;20038;-77
2022/12/01 02:47:04;;;;;;;61.33;37.38;;;;;;;-0.47;100.00;100792.44;4991149;28;20580;-77
2022/12/01 02:49:35;;;;;;;67.30;38.63;;;;;;;-0.57;100.00;100765.84;5082466;28;20494;-77
2022/12/01 02:52:03;;;;;;;;;;;;;;;-0.51;100.00;100765.97;5093592;28;20024;-77
2022/12/01 02:54:31;;;;;;;60.65;37.78;;;;;;;-0.57;100.00;100770.97;5092883;28;20412;-77
2022/12/01 02:56:56;;;;;;;63.55;39.05;;;;;;;-0.59;100.00;100772.66;5093167;28;20035;-77
2022/12/01 02:59:21;;;;;;;62.05;36.15;;;;;;;-0.57;100.00;100768.41;5093014;28;20020;-77
2022/12/01 03:02:08;;;;;;;63.47;39.22;;;;;;;-0.54;100.00;100778.72;5092660;28;20063;-77
2022/12/01 03:04:48;;;;;;;63.33;38.63;;;;;;;-0.54;100.00;100773.59;5092863;28;20119;-77
2022/12/01 03:07:47;;;;;;;62.42;38.03;;;;;;;-0.51;100.00;100775.31;5092928;28;20020;-77
2022/12/01 03:10:33;;;;;;;63.60;37.25;;;;;;;-0.46;100.00;100777.94;5092725;28;20028;-77
2022/12/01 03:13:23;;;;;;;57.30;36.35;;;;;;;-0.44;100.00;100768.63;5092806;28;20077;-77
2022/12/01 03:16:10;;;;;;;58.17;36.83;;;;;;;-0.42;100.00;100767.81;5092615;28;20426;-77
2022/12/01 03:18:38;;;;;;;61.10;37.25;;;;;;;-0.42;100.00;100770.38;5092456;28;20034;-77
2022/12/01 03:21:07;;;;;;;54.42;35.08;;;;;;;-0.44;100.00;100766.06;5074605;28;20371;-77
2022/12/01 03:23:37;;;;;;;58.53;36.10;;;;;;;-0.44;100.00;100759.25;5092336;28;20371;-77
2022/12/01 03:26:08;;;;;;;57.08;34.53;;;;;;;-0.42;100.00;100762.69;5092489;28;20447;-77
2022/12/01 03:28:40;;;;;;;66.13;39.58;;;;;;;-0.49;100.00;100744.66;5092381;28;20099;-77
2022/12/01 03:31:22;;;;;;;59.72;36.60;;;;;;;-0.48;100.00;100744.66;5091978;28;20107;-77
2022/12/01 03:33:59;;;;;;;61.35;37.10;;;;;;;-0.45;100.00;100751.53;5092308;28;20020;-77
2022/12/01 03:36:34;;;;;;;63.70;40.13;;;;;;;-0.43;100.00;100765.22;5092524;28;20047;-77
2022/12/01 03:39:05;;;;;;;65.28;36.70;;;;;;;-0.42;100.00;100772.94;5092475;28;20027;-77
2022/12/01 03:41:37;;;;;;;58.78;36.80;;;;;;;-0.44;100.00;100760.94;5092034;28;20113;-77
2022/12/01 03:44:09;;;;;;;68.38;37.67;;;;;;;-0.40;100.00;100763.56;5092516;28;20016;-77
2022/12/01 03:46:51;;;;;;;58.60;36.17;;;;;;;-0.39;100.00;100765.28;5092134;28;20362;-77
2022/12/01 03:49:18;;;;;;;63.38;38.53;;;;;;;-0.46;100.00;100757.47;5092357;28;20019;-77
2022/12/01 03:52:05;;;;;;;60.17;35.97;;;;;;;-0.41;100.00;100771.22;5091763;28;20024;-77
2022/12/01 03:54:39;;;;;;;63.30;35.88;;;;;;;-0.39;100.00;100772.97;5092128;28;20024;-77
2022/12/01 03:57:12;;;;;;;64.45;38.22;;;;;;;-0.38;100.00;100766.13;5092167;28;20475;-77
2022/12/01 03:59:40;;;;;;;74.22;40.20;;;;;;;-0.36;100.00;100761.94;5091926;28;20378;-77
2022/12/01 04:02:07;;;;;;;64.47;39.53;;;;;;;-0.41;100.00;100759.28;5092263;28;20046;-77
2022/12/01 04:04:32;;;;;;;69.30;40.75;;;;;;;-0.44;100.00;100760.94;5091524;28;20438;-77
2022/12/01 04:06:58;;;;;;;66.88;41.22;;;;;;;-0.34;100.00;100767.91;5092234;28;20023;-77
2022/12/01 04:09:23;;;;;;;63.00;38.47;;;;;;;-0.34;100.00;100763.69;5092100;28;20107;-77
2022/12/01 04:14:32;;;;;;;69.90;43.00;;;;;;;-0.35;100.00;100754.25;5091722;28;20031;-77
2022/12/01 04:16:57;;;;;;;72.00;40.78;;;;;;;-0.38;100.00;100754.22;5091986;28;20024;-77
2022/12/01 04:19:23;;;;;;;90.15;53.30;;;;;;;-0.37;100.00;100760.22;5092258;28;20045;-77
2022/12/01 04:21:48;;;;;;;91.20;51.53;;;;;;;-0.34;100.00;100766.25;5092034;28;20020;-77
2022/12/01 04:24:13;;;;;;;67.28;39.30;;;;;;;-0.37;100.00;100766.19;5092006;28;20108;-77
2022/12/01 04:26:39;;;;;;;63.28;38.55;;;;;;;-0.32;100.00;100772.22;5091687;28;20054;-77
2022/12/01 04:29:08;;;;;;;64.47;38.00;;;;;;;-0.33;100.00;100775.63;5091820;28;20027;-77
2022/12/01 04:31:33;;;;;;;61.10;35.97;;;;;;;-0.36;100.00;100764.47;5091543;28;20115;-77
2022/12/01 04:33:59;;;;;;;73.93;40.83;;;;;;;-0.39;100.00;100764.44;5092164;28;20531;-77
2022/12/01 04:36:28;;;;;;;64.82;37.45;;;;;;;-0.40;100.00;100758.44;5091900;28;20032;-77
2022/12/01 04:38:53;;;;;;;74.72;44.50;;;;;;;-0.34;100.00;100778.16;5091528;28;20024;-77
2022/12/01 04:41:18;;;;;;;88.45;53.80;;;;;;;-0.39;100.00;100760.16;5091817;28;20031;-77
2022/12/01 04:43:44;;;;;;;59.08;36.60;;;;;;;-0.34;100.00;100763.69;5093460;28;20022;-77
2022/12/01 04:46:09;;;;;;;85.22;55.33;;;;;;;-0.39;100.00;100752.50;5095770;28;20031;-77
2022/12/01 04:48:36;;;;;;;69.07;43.42;;;;;;;-0.33;100.00;100765.41;5095439;28;20027;-77
2022/12/01 04:51:02;;;;;;;76.88;53.25;;;;;;;-0.37;100.00;100763.63;5095657;28;20031;-77
2022/12/01 04:53:28;;;;;;;60.38;36.38;;;;;;;-0.47;100.00;100753.19;5095726;28;20365;-77
2022/12/01 04:55:53;;;;;;;68.22;40.63;;;;;;;-0.39;100.00;100762.72;5095219;28;20077;-77
2022/12/01 04:58:18;;;;;;;75.50;49.80;;;;;;;-0.42;100.00;100761.81;5095353;28;20059;-77
2022/12/01 05:00:44;;;;;;;61.33;37.25;;;;;;;-0.34;100.00;100773.91;5094921;28;20047;-77
2022/12/01 05:03:09;;;;;;;74.82;44.55;;;;;;;-0.36;100.00;100769.59;5095471;28;20591;-77
2022/12/01 05:05:35;;;;;;;72.75;48.78;;;;;;;-0.33;100.00;100775.63;5095120;28;20020;-77
2022/12/01 05:08:00;;;;;;;61.00;37.78;;;;;;;-0.32;100.00;100779.06;5095056;28;20118;-77
2022/12/01 05:10:26;;;;;;;62.35;38.67;;;;;;;-0.39;100.00;100766.97;5095049;28;20030;-77
2022/12/01 05:12:51;;;;;;;81.30;61.58;;;;;;;-0.38;100.00;100773.81;5094971;28;20405;-77
2022/12/01 05:15:17;;;;;;;78.25;46.25;;;;;;;-0.39;100.00;100764.44;5095002;28;20028;-77
2022/12/01 05:17:42;;;;;;;123.90;90.75;;;;;;;-0.41;100.00;100758.44;5095166;28;20020;-77
2022/12/01 05:23:00;;;;;;;83.05;51.67;;;;;;;-0.36;100.00;100760.22;5094938;28;20039;-77
2022/12/01 05:25:25;;;;;;;86.32;56.08;;;;;;;-0.29;100.00;100779.09;5094887;28;20025;-77
2022/12/01 05:27:51;;;;;;;66.03;40.80;;;;;;;-0.29;100.00;100777.41;5094618;28;20016;-77
2022/12/01 05:30:16;;;;;;;69.15;39.90;;;;;;;-0.32;100.00;100766.25;5094999;28;20024;-77
2022/12/01 05:32:41;;;;;;;65.18;38.70;;;;;;;-0.26;100.00;100780.00;5094635;28;20411;-77
2022/12/01 05:35:07;;;;;;;74.25;49.50;;;;;;;-0.24;100.00;100776.63;5094776;28;20050;-77
2022/12/01 05:37:33;;;;;;;61.67;41.08;;;;;;;-0.28;100.00;100770.59;5094760;28;20030;-77
2022/12/01 05:39:59;;;;;;;65.53;39.92;;;;;;;-0.29;100.00;100774.00;5094333;28;20149;-77
2022/12/01 05:42:25;;;;;;;65.78;40.28;;;;;;;-0.29;100.00;100772.28;5094514;28;20020;-77
2022/12/01 05:44:50;;;;;;;72.20;44.67;;;;;;;-0.26;100.00;100774.00;5094054;28;20031;-77
2022/12/01 05:47:16;;;;;;;75.25;43.97;;;;;;;-0.32;100.00;100767.13;5094521;28;20035;-77
2022/12/01 05:49:41;;;;;;;86.82;49.80;;;;;;;-0.26;100.00;100776.56;5094292;28;20439;-77
2022/12/01 05:52:06;;;;;;;72.45;44.03;;;;;;;-0.27;100.00;100780.84;5094436;28;20027;-77
2022/12/01 05:54:32;;;;;;;83.45;44.85;;;;;;;-0.28;100.00;100773.16;5093346;28;20020;-77
2022/12/01 05:56:57;;;;;;;74.43;41.92;;;;;;;-0.22;100.00;100783.47;5093866;28;20020;-77
2022/12/01 05:59:22;;;;;;;120.70;62.47;;;;;;;-0.29;100.00;100771.44;5094459;28;20261;-77
2022/12/01 06:01:48;;;;;;;208.00;89.47;;;;;;;-0.26;100.00;100766.34;5094036;28;20036;-77
2022/12/01 06:04:13;;;;;;;186.10;88.25;;;;;;;-0.17;100.00;100779.31;5094210;28;20024;-77
2022/12/01 06:06:39;;;;;;;177.82;104.10;;;;;;;-0.22;100.00;100770.66;5094066;28;20035;-77
2022/12/01 06:09:04;;;;;;;111.00;65.75;;;;;;;-0.26;100.00;100763.78;5094299;28;20024;-77
2022/12/01 06:11:29;;;;;;;90.78;51.38;;;;;;;-0.23;100.00;100770.66;5094175;28;20024;-77
2022/12/01 06:13:55;;;;;;;108.05;56.72;;;;;;;-0.18;100.00;100779.25;5093916;28;20106;-77
2022/12/01 06:16:20;;;;;;;90.53;53.00;;;;;;;-0.19;100.00;100777.53;5094072;28;20036;-77
2022/12/01 06:18:45;;;;;;;99.85;57.33;;;;;;;-0.13;100.00;100782.75;5093734;28;20020;-77
2022/12/01 06:21:11;;;;;;;80.30;45.63;;;;;;;-0.18;100.00;100775.00;5093874;28;20442;-77
2022/12/01 06:23:37;;;;;;;105.43;63.55;;;;;;;-0.11;100.00;100792.19;5093777;28;20031;-77
2022/12/01 06:26:03;;;;;;;126.07;63.83;;;;;;;-0.15;100.00;100777.59;5093672;28;20089;-77
2022/12/01 06:28:28;;;;;;;103.10;52.50;;;;;;;-0.06;100.00;100790.53;5075770;28;20024;-77
2022/12/01 06:30:54;;;;;;;106.22;58.05;;;;;;;-0.05;100.00;100799.94;5093822;28;20085;-77
2022/12/01 06:33:19;;;;;;;94.85;48.80;;;;;;;-0.06;100.00;100789.69;5093561;28;20020;-77
2022/12/01 06:35:44;;;;;;;92.25;46.72;;;;;;;-0.05;100.00;100792.25;5093272;28;20127;-77
2022/12/01 06:38:10;;;;;;;85.97;48.67;;;;;;;-0.04;100.00;100794.00;5093535;28;20097;-77
2022/12/01 06:40:35;;;;;;;97.85;55.30;;;;;;;-0.09;100.00;100785.38;5093374;28;20026;-77
2022/12/01 06:43:04;;;;;;;87.80;50.80;;;;;;;-0.04;100.00;100790.59;5093471;28;20319;-77
2022/12/01 06:45:30;;;;;;;73.57;45.85;;;;;;;-0.12;100.00;100767.41;5093590;28;20043;-77
2022/12/01 06:47:56;;;;;;;80.35;46.10;;;;;;;-0.02;100.00;100802.56;5093202;28;20621;-77
2022/12/01 06:50:23;;;;;;;81.90;49.03;;;;;;;-0.01;100.00;100796.59;5093337;28;20059;-77
2022/12/01 06:52:48;;;;;;;98.63;54.28;;;;;;;0.04;100.00;100798.34;5093023;28;20028;-77
2022/12/01 06:55:14;;;;;;;127.25;66.75;;;;;;;0.00;100.00;100782.09;5093075;28;20459;-77
2022/12/01 06:57:39;;;;;;;70.75;40.85;;;;;;;0.06;100.00;100786.44;5093211;28;20136;-77
2022/12/01 07:00:05;;;;;;;79.03;45.08;;;;;;;0.04;100.00;100788.97;5093276;28;20178;-77
2022/12/01 07:02:31;;;;;;;86.22;50.85;;;;;;;0.05;100.00;100787.28;5074687;28;20439;-77
2022/12/01 07:04:56;;;;;;;84.38;51.08;;;;;;;0.07;100.00;100795.84;5092782;28;20058;-77
2022/12/01 07:07:22;;;;;;;82.32;48.92;;;;;;;0.05;100.00;100793.28;5092575;28;20028;-77
2022/12/01 07:09:47;;;;;;;76.65;46.50;;;;;;;0.03;100.00;100794.06;5092649;28;20027;-77
2022/12/01 07:12:12;;;;;;;76.35;49.20;;;;;;;0.09;100.00;100797.59;5093059;28;20565;-77
2022/12/01 07:14:38;;;;;;;75.20;48.38;;;;;;;0.15;100.00;100804.50;5092873;28;20051;-77
2022/12/01 07:17:04;;;;;;;73.35;42.95;;;;;;;0.11;100.00;100795.91;5092634;28;20032;-77
2022/12/01 07:19:29;;;;;;;73.75;43.05;;;;;;;0.09;100.00;100783.94;5092796;28;20031;-77
2022/12/01 07:21:55;;;;;;;90.50;53.70;;;;;;;0.16;100.00;100793.41;5092485;28;20020;-77
2022/12/01 07:24:20;;;;;;;77.28;48.42;;;;;;;0.22;100.00;100807.19;5092592;28;20020;-77
2022/12/01 07:26:46;;;;;;;72.68;43.63;;;;;;;0.19;100.00;100801.16;5092511;28;20024;-77
2022/12/01 07:29:12;;;;;;;85.05;52.92;;;;;;;0.23;100.00;100802.91;5092729;28;20016;-77
2022/12/01 07:31:38;;;;;;;102.30;60.78;;;;;;;0.26;100.00;100802.97;5092457;28;20039;-77
2022/12/01 07:34:04;;;;;;;80.70;45.42;;;;;;;0.21;100.00;100799.44;5092260;28;20073;-77
2022/12/01 07:36:29;;;;;;;85.60;50.80;;;;;;;0.21;100.00;100802.00;5092531;28;20020;-77
2022/12/01 07:38:55;;;;;;;71.97;43.20;;;;;;;0.23;100.00;100798.66;5092223;28;20107;-77
2022/12/01 07:41:20;;;;;;;86.43;50.08;;;;;;;0.28;100.00;100808.94;5092850;28;20020;-77
2022/12/01 07:43:47;;;;;;;78.85;46.30;;;;;;;0.24;100.00;100802.91;5092209;28;20020;-77
2022/12/01 07:46:15;;;;;;;224.57;138.45;;;;;;;0.24;100.00;100791.81;5092290;28;20032;-77
2022/12/01 07:48:41;;;;;;;92.80;56.35;;;;;;;0.34;100.00;100814.19;5092325;28;20064;-77
2022/12/01 07:51:08;;;;;;;77.88;47.17;;;;;;;0.34;100.00;100811.63;5092079;28;20455;-77
2022/12/01 07:53:34;;;;;;;83.22;51.45;;;;;;;0.36;100.00;100811.63;5092106;28;20494;-77
2022/12/01 07:56:00;;;;;;;85.25;50.08;;;;;;;0.33;100.00;100806.44;5092194;28;20016;-77
2022/12/01 07:58:25;;;;;;;77.85;47.30;;;;;;;0.39;100.00;100811.69;5092287;28;20424;-77
2022/12/01 08:00:51;;;;;;;74.40;46.40;;;;;;;0.42;100.00;100820.28;5092049;28;20036;-77
2022/12/01 08:03:17;;;;;;;74.90;47.88;;;;;;;0.40;100.00;100816.81;5091821;28;20253;-77
2022/12/01 08:05:42;;;;;;;74.45;46.85;;;;;;;0.44;100.00;100821.13;5090668;28;20024;-77
2022/12/01 08:08:07;;;;;;;74.78;46.75;;;;;;;0.39;100.00;100809.13;5090769;28;20455;-77
2022/12/01 08:10:33;;;;;;;73.28;43.53;;;;;;;0.39;100.00;100807.41;5091968;28;20042;-77
2022/12/01 08:12:58;;;;;;;75.32;44.95;;;;;;;0.48;100.00;100825.47;5091887;28;20020;-77
2022/12/01 08:15:24;;;;;;;79.53;49.88;;;;;;;0.48;100.00;100819.47;5091448;28;20116;-77
2022/12/01 08:17:49;;;;;;;86.32;52.78;;;;;;;0.49;100.00;100819.50;5092095;28;20024;-77
2022/12/01 08:20:14;;;;;;;99.15;58.78;;;;;;;0.44;100.00;100815.16;5096199;28;20452;-77
2022/12/01 08:22:40;;;;;;;103.35;65.28;;;;;;;0.46;100.00;100809.22;5095997;28;20038;-77
2022/12/01 08:25:06;;;;;;;87.43;52.42;;;;;;;0.41;100.00;100800.59;5095946;28;20039;-77
2022/12/01 08:27:33;;;;;;;77.97;48.58;;;;;;;0.49;100.00;100811.78;5096106;28;20020;-79
2022/12/01 08:29:58;;;;;;;77.70;48.95;;;;;;;0.50;100.00;100810.09;5095981;28;20028;-77
2022/12/01 08:32:23;;;;;;;74.63;43.40;;;;;;;0.55;100.00;100815.28;5094895;28;20099;-77
2022/12/01 08:34:49;;;;;;;76.20;49.10;;;;;;;0.61;100.00;100807.69;5094489;28;20032;-77
2022/12/01 08:37:14;;;;;;;70.38;42.20;;;;;;;0.64;100.00;100812.84;5091784;28;20077;-77
2022/12/01 08:39:39;;;;;;;68.65;43.28;;;;;;;0.66;100.00;100809.44;5094695;28;20020;-77
2022/12/01 08:42:05;;;;;;;65.80;42.88;;;;;;;0.72;100.00;100796.72;5094580;28;20012;-77
2022/12/01 08:44:30;;;;;;;67.07;41.03;;;;;;;0.79;100.00;100801.91;5095890;28;20424;-77
2022/12/01 08:46:55;;;;;;;79.93;47.50;;;;;;;0.85;100.00;100804.56;5094771;28;20016;-77
2022/12/01 08:49:21;;;;;;;82.03;52.63;;;;;;;0.88;100.00;100810.56;5094668;28;20027;-77
2022/12/01 08:51:47;;;;;;;83.25;50.85;;;;;;;0.97;100.00;100814.97;5094605;28;20020;-77
2022/12/01 08:54:12;;;;;;;68.75;43.67;;;;;;;1.02;100.00;100813.28;5095221;28;20019;-77
2022/12/01 08:56:41;;;;;;;64.70;40.00;;;;;;;1.13;100.00;100813.38;5095571;28;20020;-77
2022/12/01 08:59:07;;;;;;;74.35;46.20;;;;;;;1.08;100.00;100807.34;5095239;28;20031;-77
2022/12/01 09:01:32;;;;;;;73.28;47.53;;;;;;;1.20;100.00;100812.63;5095566;28;20044;-77
2022/12/01 09:04:07;;;;;;;71.55;46.17;;;;;;;1.16;100.00;100808.31;5095082;28;20455;-77
2022/12/01 09:06:43;;;;;;;82.03;48.03;;;;;;;1.04;100.00;100785.09;5095115;28;20050;-77
2022/12/01 09:09:12;;;;;;;97.15;59.35;;;;;;;1.14;100.00;100810.88;5095181;28;20452;-77
2022/12/01 09:11:39;;;;;;;88.40;56.55;;;;;;;1.13;100.00;100808.25;5095251;28;20488;-77
2022/12/01 09:14:04;;;;;;;69.05;42.60;;;;;;;1.14;100.00;100810.88;5095016;28;20016;-77
2022/12/01 09:16:29;;;;;;;70.28;44.53;;;;;;;1.14;100.00;100810.88;5095248;28;20039;-77
2022/12/01 09:18:55;;;;;;;78.80;47.90;;;;;;;0.99;100.00;100801.28;5094805;28;20023;-77
2022/12/01 09:21:24;;;;;;;71.55;48.00;;;;;;;0.86;100.00;100803.72;5094963;28;20109;-77
2022/12/01 09:23:49;;;;;;;72.72;45.65;;;;;;;0.77;100.00;100819.00;5094904;28;20023;-77
2022/12/01 09:26:17;;;;;;;77.38;46.67;;;;;;;0.63;100.00;100821.38;5094875;28;20032;-77
2022/12/01 09:28:51;;;;;;;79.80;48.10;;;;;;;0.42;100.00;100809.13;5094790;28;20102;-77
2022/12/01 09:31:22;;;;;;;76.13;48.05;;;;;;;0.31;100.00;100803.03;5095052;28;20031;-77
2022/12/01 09:33:47;;;;;;;82.63;51.55;;;;;;;0.27;100.00;100799.56;5094885;28;20022;-77
2022/12/01 09:36:13;;;;;;;66.25;41.00;;;;;;;0.30;100.00;100809.84;5094921;28;20542;-77
2022/12/01 09:38:39;;;;;;;72.97;46.00;;;;;;;0.33;100.00;100804.75;5095024;28;20028;-77
2022/12/01 09:41:07;;;;;;;70.82;44.88;;;;;;;0.26;100.00;100795.28;5094474;28;20516;-77
2022/12/01 09:43:40;;;;;;;97.47;68.28;;;;;;;0.31;100.00;100805.59;5094523;28;20490;-77
2022/12/01 09:46:14;;;;;;;76.60;46.55;;;;;;;0.23;100.00;100795.22;5094116;28;20169;-77
2022/12/01 09:48:45;;;;;;;112.97;73.57;;;;;;;0.26;100.00;100802.97;5094660;28;20070;-77
2022/12/01 09:51:16;;;;;;;100.38;52.17;;;;;;;0.34;100.00;100800.47;5094324;28;20062;-77
2022/12/01 09:53:42;;;;;;;102.20;58.05;;;;;;;0.31;100.00;100783.38;5094553;28;20493;-77
2022/12/01 09:56:23;;;;;;;88.07;50.75;;;;;;;0.40;100.00;100780.06;5094228;28;20019;-77
2022/12/01 09:58:52;;;;;;;80.75;46.65;;;;;;;0.50;100.00;100787.03;5094311;28;20020;-77
2022/12/01 10:01:19;;;;;;;111.03;64.80;;;;;;;0.50;100.00;100785.31;5094109;28;20058;-77
2022/12/01 10:03:58;;;;;;;84.57;48.85;;;;;;;0.43;100.00;100775.00;5094319;28;20024;-77
2022/12/01 10:07:18;;;;;;;90.05;55.03;;;;;;;0.48;100.00;100784.44;5094183;28;20016;-77
2022/12/01 10:10:02;;;;;;;210.18;101.32;;;;;;;0.51;100.00;100783.66;5011889;28;20038;-77
2022/12/01 10:12:33;;;;;;;81.63;47.40;;;;;;;0.50;100.00;100781.91;5011659;28;20443;-77
2022/12/01 10:15:12;;;;;;;;;;;;;;;0.50;100.00;100777.63;5011974;28;20029;-77
2022/12/01 10:17:54;;;;;;;82.80;52.45;;;;;;;0.49;100.00;100781.03;5011708;28;19945;-77
2022/12/01 10:20:25;;;;;;;101.47;55.70;;;;;;;0.50;100.00;100790.44;5011712;28;20116;-77
2022/12/01 10:23:17;;;;;;;113.78;67.88;;;;;;;0.53;100.00;100787.06;5011673;28;20042;-77
2022/12/01 10:26:01;;;;;;;107.18;64.25;;;;;;;0.55;100.00;100782.84;5011787;28;20029;-77
2022/12/01 10:28:39;;;;;;;89.90;53.28;;;;;;;0.55;100.00;100784.50;5011852;28;20110;-76
2022/12/01 10:31:14;;;;;;;95.45;58.20;;;;;;;0.53;100.00;100779.38;5011092;28;20061;-77
2022/12/01 10:34:01;;;;;;;81.72;48.25;;;;;;;0.48;100.00;100768.22;5011349;28;20117;-77
2022/12/01 10:36:28;;;;;;;83.60;49.47;;;;;;;0.52;100.00;100769.13;5011346;28;20066;-77
2022/12/01 10:38:54;;;;;;;78.40;46.25;;;;;;;0.59;100.00;100773.47;5010985;28;20497;-77
2022/12/01 10:41:21;;;;;;;93.03;59.40;;;;;;;0.60;100.00;100776.06;5010519;28;20029;-77
2022/12/01 10:43:50;;;;;;;85.68;50.28;;;;;;;0.56;100.00;100764.03;5054122;28;20032;-77
2022/12/01 10:46:26;;;;;;;98.88;65.55;;;;;;;0.62;100.00;100764.09;5092967;28;20020;-77
2022/12/01 10:49:08;;;;;;;82.13;47.92;;;;;;;0.59;100.00;100750.38;5093277;28;20466;-77
2022/12/01 10:51:57;;;;;;;86.85;51.65;;;;;;;0.61;100.00;100752.13;5093283;28;20364;-77
2022/12/01 10:54:30;;;;;;;88.43;52.95;;;;;;;0.70;100.00;100766.75;5093243;28;20308;-77
2022/12/01 10:56:57;;;;;;;87.35;53.20;;;;;;;0.65;100.00;100755.59;5093009;28;20028;-77
2022/12/01 10:59:25;;;;;;;97.38;63.85;;;;;;;0.71;100.00;100755.66;5093300;28;20413;-77
2022/12/01 11:01:52;;;;;;;93.65;55.90;;;;;;;0.68;100.00;100743.69;5093153;28;20052;-77
2022/12/01 11:04:33;;;;;;;105.47;68.18;;;;;;;0.74;100.00;100750.56;5092686;28;20019;-77
2022/12/01 11:06:59;;;;;;;228.63;113.32;;;;;;;0.70;100.00;100747.09;5092692;28;20024;-77
2022/12/01 11:09:27;;;;;;;106.03;56.75;;;;;;;0.81;100.00;100754.06;5092723;28;20024;-77
2022/12/01 11:11:59;;;;;;;133.52;67.57;;;;;;;0.82;100.00;100755.78;5093012;28;20111;-77
2022/12/01 11:14:48;;;;;;;304.40;146.98;;;;;;;0.89;100.00;100755.88;5092765;28;20482;-77
2022/12/01 11:17:25;;;;;;;86.57;48.78;;;;;;;0.84;100.00;100731.00;5092607;28;20020;-77
2022/12/01 11:19:51;;;;;;;73.88;47.25;;;;;;;0.88;100.00;100749.00;5092518;28;20034;-77